createdAt,value
2016-11-18T00:00:11.158Z,12.24
2016-11-18T00:01:11.458Z,12.17
2016-11-18T00:02:11.432Z,12.21
2016-11-18T00:03:11.842Z,12.17
2016-11-18T00:04:11.822Z,12.17
2016-11-18T00:05:10.961Z,12.21
2016-11-18T00:06:10.941Z,12.24
2016-11-18T00:07:11.622Z,12.28
2016-11-18T00:08:11.561Z,12.35
2016-11-18T00:09:11.318Z,12.3
2016-11-18T00:10:10.948Z,12.32
2016-11-18T00:11:10.841Z,12.32
2016-11-18T00:12:11.060Z,12.32
2016-11-18T00:13:10.829Z,12.32
2016-11-18T00:14:11.076Z,12.39
2016-11-18T00:15:11.460Z,12.32
2016-11-18T00:16:11.156Z,12.21
2016-11-18T00:17:10.484Z,12.23
2016-11-18T00:18:10.707Z,12.27
2016-11-18T00:19:11.119Z,12.17
2016-11-18T00:20:11.484Z,12.16
2016-11-18T00:21:11.484Z,12.24
2016-11-18T00:22:11.462Z,12.2
2016-11-18T00:23:10.789Z,12.25
2016-11-18T00:24:10.366Z,12.25
2016-11-18T00:25:11.295Z,12.23
2016-11-18T00:26:11.381Z,12.35
2016-11-18T00:27:10.700Z,12.3
2016-11-18T00:28:10.940Z,12.32
2016-11-18T00:29:11.411Z,12.21
2016-11-18T00:30:11.156Z,12.24
2016-11-18T00:31:11.280Z,12.2
2016-11-18T00:32:10.544Z,12.2
2016-11-18T00:33:11.136Z,12.3
2016-11-18T00:34:11.101Z,12.28
2016-11-18T00:35:10.816Z,12.35
2016-11-18T00:36:11.192Z,12.32
2016-11-18T00:37:11.039Z,12.34
2016-11-18T00:38:11.161Z,12.28
2016-11-18T00:39:11.120Z,12.31
2016-11-18T00:40:10.038Z,12.3
2016-11-18T00:41:10.367Z,12.39
2016-11-18T00:42:10.251Z,12.32
2016-11-18T00:43:10.491Z,12.37
2016-11-18T00:44:10.635Z,12.28
2016-11-18T00:45:10.707Z,12.25
2016-11-18T00:46:10.579Z,12.35
2016-11-18T00:47:10.821Z,12.32
2016-11-18T00:48:09.901Z,12.37
2016-11-18T00:49:10.518Z,12.48
2016-11-18T00:50:10.189Z,12.32
2016-11-18T00:51:10.962Z,12.35
2016-11-18T00:52:10.469Z,12.45
2016-11-18T00:53:10.736Z,12.42
2016-11-18T00:54:10.839Z,12.43
2016-11-18T00:55:09.519Z,12.43
2016-11-18T00:56:10.154Z,12.46
2016-11-18T00:57:10.801Z,12.43
2016-11-18T00:58:10.359Z,12.53
2016-11-18T00:59:09.917Z,12.52
2016-11-18T01:00:10.384Z,12.61
2016-11-18T01:01:10.280Z,12.55
2016-11-18T01:02:10.554Z,12.45
2016-11-18T01:03:10.671Z,12.37
2016-11-18T01:04:10.664Z,12.1
2016-11-18T01:05:09.568Z,11.98
2016-11-18T01:06:09.866Z,11.71
2016-11-18T01:07:10.632Z,11.5
2016-11-18T01:08:09.517Z,11.26
2016-11-18T01:09:09.738Z,11.08
2016-11-18T01:10:09.922Z,11.14
2016-11-18T01:11:10.659Z,11.05
2016-11-18T01:12:10.098Z,11
2016-11-18T01:13:09.604Z,10.87
2016-11-18T01:14:09.307Z,10.77
2016-11-18T01:15:10.491Z,10.67
2016-11-18T01:16:10.027Z,10.57
2016-11-18T01:17:10.013Z,10.63
2016-11-18T01:18:09.562Z,10.48
2016-11-18T01:19:09.951Z,10.53
2016-11-18T01:20:09.285Z,10.62
2016-11-18T01:21:10.353Z,10.64
2016-11-18T01:22:09.683Z,10.53
2016-11-18T01:23:09.878Z,10.52
2016-11-18T01:24:10.247Z,10.48
2016-11-18T01:25:09.831Z,10.46
2016-11-18T01:26:10.242Z,10.36
2016-11-18T01:27:09.784Z,10.4
2016-11-18T01:28:09.362Z,10.41
2016-11-18T01:29:09.522Z,10.46
2016-11-18T01:30:10.151Z,10.46
2016-11-18T01:31:08.975Z,10.48
2016-11-18T01:32:10.121Z,10.55
2016-11-18T01:33:10.108Z,10.52
2016-11-18T01:34:09.667Z,10.64
2016-11-18T01:35:09.633Z,10.63
2016-11-18T01:36:09.202Z,10.67
2016-11-18T01:37:09.271Z,10.69
2016-11-18T01:38:09.852Z,10.55
2016-11-18T01:39:09.323Z,10.57
2016-11-18T01:40:09.542Z,10.57
2016-11-18T01:41:09.780Z,10.66
2016-11-18T01:42:09.782Z,10.56
2016-11-18T01:43:08.833Z,10.56
2016-11-18T01:44:09.229Z,10.53
2016-11-18T01:45:09.724Z,10.46
2016-11-18T01:46:09.838Z,10.48
2016-11-18T01:47:09.463Z,10.37
2016-11-18T01:48:08.973Z,10.57
2016-11-18T01:49:09.353Z,10.56
2016-11-18T01:50:09.760Z,10.48
2016-11-18T01:51:08.913Z,10.28
2016-11-18T01:52:09.316Z,10.16
2016-11-18T01:53:09.687Z,10.25
2016-11-18T01:54:08.843Z,10.33
2016-11-18T01:55:08.828Z,10.3
2016-11-18T01:56:09.093Z,10.3
2016-11-18T01:57:09.193Z,10.18
2016-11-18T01:58:08.953Z,10.33
2016-11-18T01:59:09.702Z,10.33
2016-11-18T02:00:08.422Z,10.48
2016-11-18T02:01:08.074Z,10.4
2016-11-18T02:02:08.691Z,10.3
2016-11-18T02:03:08.843Z,10.26
2016-11-18T02:04:08.691Z,10.33
2016-11-18T02:05:08.937Z,10.43
2016-11-18T02:06:09.053Z,10.53
2016-11-18T02:07:09.059Z,10.59
2016-11-18T02:08:08.347Z,10.55
2016-11-18T02:09:09.268Z,10.57
2016-11-18T02:10:08.723Z,10.53
2016-11-18T02:11:08.953Z,10.59
2016-11-18T02:12:08.593Z,10.56
2016-11-18T02:13:08.477Z,10.52
2016-11-18T02:14:08.253Z,10.38
2016-11-18T02:15:09.276Z,10.3
2016-11-18T02:16:09.235Z,10.36
2016-11-18T02:17:08.804Z,10.4
2016-11-18T02:18:09.192Z,10.43
2016-11-18T02:19:08.359Z,10.44
2016-11-18T02:20:08.101Z,10.41
2016-11-18T02:21:08.753Z,10.52
2016-11-18T02:22:09.147Z,10.53
2016-11-18T02:23:07.720Z,10.52
2016-11-18T02:24:09.073Z,10.48
2016-11-18T02:25:08.649Z,10.55
2016-11-18T02:26:09.093Z,10.53
2016-11-18T02:27:09.052Z,10.48
2016-11-18T02:28:08.982Z,10.4
2016-11-18T02:29:08.980Z,10.22
2016-11-18T02:30:08.553Z,10.23
2016-11-18T02:31:08.524Z,10.3
2016-11-18T02:32:08.782Z,10.3
2016-11-18T02:33:08.500Z,10.4
2016-11-18T02:34:08.877Z,10.47
2016-11-18T02:35:07.812Z,10.37
2016-11-18T02:36:08.841Z,10.41
2016-11-18T02:37:08.842Z,10.41
2016-11-18T02:38:07.964Z,10.36
2016-11-18T02:39:08.823Z,10.46
2016-11-18T02:40:08.348Z,10.53
2016-11-18T02:41:08.327Z,10.47
2016-11-18T02:42:08.077Z,10.53
2016-11-18T02:43:07.869Z,10.47
2016-11-18T02:44:07.943Z,10.46
2016-11-18T02:45:08.709Z,10.46
2016-11-18T02:46:07.193Z,10.47
2016-11-18T02:47:08.214Z,10.43
2016-11-18T02:48:08.233Z,10.44
2016-11-18T02:49:07.861Z,10.43
2016-11-18T02:50:07.821Z,10.47
2016-11-18T02:51:07.716Z,10.53
2016-11-18T02:52:07.805Z,10.41
2016-11-18T02:53:07.863Z,10.44
2016-11-18T02:54:08.138Z,10.41
2016-11-18T02:55:08.456Z,10.38
2016-11-18T02:56:07.802Z,10.44
2016-11-18T02:57:07.372Z,10.41
2016-11-18T02:58:07.658Z,10.16
2016-11-18T02:59:07.990Z,10.07
2016-11-18T03:00:07.492Z,10.11
2016-11-18T03:01:07.922Z,10.01
2016-11-18T03:02:07.595Z,10.03
2016-11-18T03:03:07.521Z,10.05
2016-11-18T03:04:07.623Z,10.18
2016-11-18T03:05:07.411Z,10.21
2016-11-18T03:06:07.847Z,10.19
2016-11-18T03:07:07.835Z,10.19
2016-11-18T03:08:07.571Z,10.25
2016-11-18T03:09:08.264Z,10.25
2016-11-18T03:10:08.187Z,10.3
2016-11-18T03:11:07.103Z,10.18
2016-11-18T03:12:07.705Z,10.19
2016-11-18T03:13:07.382Z,10.33
2016-11-18T03:14:07.352Z,10.26
2016-11-18T03:15:07.346Z,10.16
2016-11-18T03:16:07.010Z,10.21
2016-11-18T03:17:07.291Z,10.26
2016-11-18T03:18:07.889Z,10.26
2016-11-18T03:19:07.582Z,10.21
2016-11-18T03:20:07.570Z,10.28
2016-11-18T03:21:08.006Z,10.25
2016-11-18T03:22:07.096Z,10.25
2016-11-18T03:23:06.841Z,10.18
2016-11-18T03:24:07.262Z,10.13
2016-11-18T03:25:07.342Z,10.05
2016-11-18T03:26:07.711Z,10.21
2016-11-18T03:27:07.871Z,10.07
2016-11-18T03:28:06.721Z,10.13
2016-11-18T03:29:07.370Z,10.21
2016-11-18T03:30:07.752Z,10.15
2016-11-18T03:31:07.333Z,10.21
2016-11-18T03:32:07.349Z,10.11
2016-11-18T03:33:06.580Z,10.15
2016-11-18T03:34:06.968Z,10.16
2016-11-18T03:35:07.317Z,10.19
2016-11-18T03:36:07.170Z,10.15
2016-11-18T03:37:07.633Z,10.18
2016-11-18T03:38:06.602Z,10.13
2016-11-18T03:39:07.607Z,10.21
2016-11-18T03:40:07.591Z,10.19
2016-11-18T03:41:06.721Z,10.15
2016-11-18T03:42:07.520Z,10.16
2016-11-18T03:43:06.479Z,10.18
2016-11-18T03:44:06.726Z,10.05
2016-11-18T03:45:07.057Z,9.93
2016-11-18T03:46:07.048Z,9.72
2016-11-18T03:47:06.276Z,9.56
2016-11-18T03:48:07.021Z,9.45
2016-11-18T03:49:07.399Z,9.47
2016-11-18T03:50:07.349Z,9.45
2016-11-18T03:51:07.514Z,9.53
2016-11-18T03:52:07.359Z,9.65
2016-11-18T03:53:06.569Z,9.7
2016-11-18T03:54:06.649Z,9.87
2016-11-18T03:55:06.862Z,9.86
2016-11-18T03:56:06.414Z,9.86
2016-11-18T03:57:06.820Z,9.79
2016-11-18T03:58:07.054Z,9.93
2016-11-18T03:59:06.766Z,9.87
2016-11-18T04:00:07.185Z,9.95
2016-11-18T04:01:06.279Z,10.01
2016-11-18T04:02:06.702Z,10.05
2016-11-18T04:03:06.715Z,10.07
2016-11-18T04:04:06.949Z,10.04
2016-11-18T04:05:07.043Z,10.1
2016-11-18T04:06:06.648Z,10.11
2016-11-18T04:07:05.969Z,10.1
2016-11-18T04:08:06.989Z,10.08
2016-11-18T04:09:06.993Z,10.07
2016-11-18T04:10:06.988Z,10.13
2016-11-18T04:11:06.132Z,10.1
2016-11-18T04:12:06.091Z,10.13
2016-11-18T04:13:06.771Z,10.15
2016-11-18T04:14:05.746Z,10.15
2016-11-18T04:15:06.456Z,10.04
2016-11-18T04:16:06.292Z,10.04
2016-11-18T04:17:05.675Z,10.03
2016-11-18T04:18:06.149Z,10.05
2016-11-18T04:19:06.389Z,10.05
2016-11-18T04:20:06.214Z,10
2016-11-18T04:21:06.726Z,9.97
2016-11-18T04:22:06.069Z,9.98
2016-11-18T04:23:06.740Z,10.04
2016-11-18T04:24:06.029Z,9.93
2016-11-18T04:25:06.729Z,10
2016-11-18T04:26:06.237Z,9.87
2016-11-18T04:27:06.609Z,10.03
2016-11-18T04:28:05.941Z,10.03
2016-11-18T04:29:05.844Z,9.95
2016-11-18T04:30:05.815Z,9.82
2016-11-18T04:31:06.520Z,9.87
2016-11-18T04:32:06.518Z,9.82
2016-11-18T04:33:06.088Z,9.8
2016-11-18T04:34:05.178Z,9.75
2016-11-18T04:35:06.060Z,9.64
2016-11-18T04:36:06.137Z,9.46
2016-11-18T04:37:05.819Z,9.29
2016-11-18T04:38:05.762Z,9.19
2016-11-18T04:39:05.728Z,9.06
2016-11-18T04:40:05.026Z,9.05
2016-11-18T04:41:06.189Z,8.87
2016-11-18T04:42:06.328Z,8.88
2016-11-18T04:43:05.675Z,8.8
2016-11-18T04:44:04.938Z,8.76
2016-11-18T04:45:06.379Z,8.79
2016-11-18T04:46:05.174Z,8.8
2016-11-18T04:47:05.554Z,8.79
2016-11-18T04:48:05.640Z,8.67
2016-11-18T04:49:06.291Z,8.73
2016-11-18T04:50:06.158Z,8.83
2016-11-18T04:51:05.406Z,8.83
2016-11-18T04:52:05.368Z,8.93
2016-11-18T04:53:05.354Z,8.91
2016-11-18T04:54:05.295Z,8.79
2016-11-18T04:55:06.218Z,8.77
2016-11-18T04:56:05.623Z,8.79
2016-11-18T04:57:04.911Z,8.66
2016-11-18T04:58:05.331Z,8.77
2016-11-18T04:59:04.662Z,8.7
2016-11-18T05:00:05.929Z,8.67
2016-11-18T05:01:05.770Z,8.73
2016-11-18T05:02:04.838Z,8.76
2016-11-18T05:03:05.839Z,8.69
2016-11-18T05:04:04.709Z,8.69
2016-11-18T05:05:05.878Z,8.72
2016-11-18T05:06:05.402Z,8.67
2016-11-18T05:07:05.010Z,8.54
2016-11-18T05:08:05.354Z,8.58
2016-11-18T05:09:04.691Z,8.66
2016-11-18T05:10:05.750Z,8.73
2016-11-18T05:11:04.594Z,8.72
2016-11-18T05:12:05.031Z,8.48
2016-11-18T05:13:04.381Z,8.33
2016-11-18T05:14:04.832Z,8.15
2016-11-18T05:15:05.620Z,8.24
2016-11-18T05:16:05.239Z,8.3
2016-11-18T05:17:05.165Z,8.34
2016-11-18T05:18:05.133Z,8.4
2016-11-18T05:19:05.533Z,8.45
2016-11-18T05:20:05.100Z,8.39
2016-11-18T05:21:05.358Z,8.36
2016-11-18T05:22:05.063Z,8.19
2016-11-18T05:23:05.473Z,8.24
2016-11-18T05:24:04.808Z,8.18
2016-11-18T05:25:05.447Z,8.18
2016-11-18T05:26:04.589Z,8.16
2016-11-18T05:27:04.968Z,8.22
2016-11-18T05:28:05.369Z,8.39
2016-11-18T05:29:05.024Z,8.32
2016-11-18T05:30:04.666Z,8.34
2016-11-18T05:31:04.865Z,8.03
2016-11-18T05:32:04.876Z,7.94
2016-11-18T05:33:05.257Z,8.15
2016-11-18T05:34:04.532Z,8.27
2016-11-18T05:35:04.140Z,8.24
2016-11-18T05:36:05.018Z,8.27
2016-11-18T05:37:05.173Z,8.33
2016-11-18T05:38:04.738Z,8.36
2016-11-18T05:39:05.145Z,8.42
2016-11-18T05:40:04.555Z,8.39
2016-11-18T05:41:04.438Z,8.14
2016-11-18T05:42:05.040Z,8.09
2016-11-18T05:43:04.298Z,8.11
2016-11-18T05:44:04.879Z,8.04
2016-11-18T05:45:04.156Z,8.09
2016-11-18T05:46:04.561Z,7.91
2016-11-18T05:47:04.818Z,7.81
2016-11-18T05:48:04.279Z,7.64
2016-11-18T05:49:04.888Z,7.76
2016-11-18T05:50:04.458Z,7.91
2016-11-18T05:51:04.849Z,7.91
2016-11-18T05:52:04.870Z,8
2016-11-18T05:53:04.689Z,7.96
2016-11-18T05:54:03.740Z,7.96
2016-11-18T05:55:03.994Z,7.68
2016-11-18T05:56:04.027Z,7.68
2016-11-18T05:57:04.316Z,7.67
2016-11-18T05:58:03.649Z,7.68
2016-11-18T05:59:04.681Z,7.6
2016-11-18T06:00:04.312Z,7.52
2016-11-18T06:01:03.591Z,7.42
2016-11-18T06:02:04.606Z,7.42
2016-11-18T06:03:04.025Z,7.59
2016-11-18T06:04:03.926Z,7.73
2016-11-18T06:05:03.909Z,7.59
2016-11-18T06:06:04.578Z,7.3
2016-11-18T06:07:03.777Z,7.52
2016-11-18T06:08:03.412Z,7.78
2016-11-18T06:09:04.492Z,7.7
2016-11-18T06:10:04.327Z,7.76
2016-11-18T06:11:03.191Z,7.81
2016-11-18T06:12:04.007Z,7.78
2016-11-18T06:13:03.953Z,7.7
2016-11-18T06:14:03.940Z,7.73
2016-11-18T06:15:03.517Z,7.68
2016-11-18T06:16:04.311Z,7.79
2016-11-18T06:17:03.051Z,7.63
2016-11-18T06:18:03.862Z,7.76
2016-11-18T06:19:04.272Z,7.86
2016-11-18T06:20:03.600Z,7.97
2016-11-18T06:21:03.140Z,7.9
2016-11-18T06:22:04.169Z,7.88
2016-11-18T06:23:04.186Z,7.94
2016-11-18T06:24:04.160Z,7.9
2016-11-18T06:25:03.472Z,7.91
2016-11-18T06:26:03.367Z,7.56
2016-11-18T06:27:04.065Z,7.59
2016-11-18T06:28:03.633Z,7.37
2016-11-18T06:29:04.040Z,7.45
2016-11-18T06:30:03.858Z,7.49
2016-11-18T06:31:03.601Z,7.42
2016-11-18T06:32:03.300Z,7.59
2016-11-18T06:33:02.798Z,7.38
2016-11-18T06:34:03.497Z,7.34
2016-11-18T06:35:03.754Z,7.29
2016-11-18T06:36:03.885Z,7.42
2016-11-18T06:37:03.445Z,7.41
2016-11-18T06:38:03.204Z,7.44
2016-11-18T06:39:03.804Z,7.63
2016-11-18T06:40:03.146Z,7.52
2016-11-18T06:41:02.974Z,7.59
2016-11-18T06:42:03.620Z,7.44
2016-11-18T06:43:03.735Z,7.29
2016-11-18T06:44:03.061Z,7.39
2016-11-18T06:45:03.540Z,7.55
2016-11-18T06:46:03.009Z,7.62
2016-11-18T06:47:02.991Z,7.62
2016-11-18T06:48:03.218Z,7.7
2016-11-18T06:49:03.026Z,7.47
2016-11-18T06:50:03.592Z,7.14
2016-11-18T06:51:02.074Z,7.12
2016-11-18T06:52:02.802Z,6.93
2016-11-18T06:53:03.505Z,7.08
2016-11-18T06:54:03.066Z,7.04
2016-11-18T06:55:03.476Z,7.05
2016-11-18T06:56:03.025Z,7.08
2016-11-18T06:57:03.000Z,7.17
2016-11-18T06:58:02.662Z,7.16
2016-11-18T06:59:02.223Z,7.26
2016-11-18T07:00:02.745Z,7.42
2016-11-18T07:01:03.176Z,7.57
2016-11-18T07:02:02.904Z,7.47
2016-11-18T07:03:03.256Z,7.44
2016-11-18T07:04:03.241Z,7.2
2016-11-18T07:05:02.415Z,7.23
2016-11-18T07:06:02.462Z,7.23
2016-11-18T07:07:02.760Z,7.31
2016-11-18T07:08:02.741Z,7.42
2016-11-18T07:09:02.997Z,7.19
2016-11-18T07:10:01.822Z,7.29
2016-11-18T07:11:02.931Z,7.24
2016-11-18T07:12:03.097Z,7.17
2016-11-18T07:13:02.413Z,7.23
2016-11-18T07:14:02.626Z,7.21
2016-11-18T07:15:02.334Z,7.35
2016-11-18T07:16:02.961Z,7.17
2016-11-18T07:17:02.237Z,7.19
2016-11-18T07:18:02.271Z,7.29
2016-11-18T07:19:02.263Z,7.19
2016-11-18T07:20:02.902Z,7.2
2016-11-18T07:21:02.451Z,7.17
2016-11-18T07:22:02.078Z,7.19
2016-11-18T07:23:02.813Z,7.26
2016-11-18T07:24:01.742Z,7.31
2016-11-18T07:25:02.435Z,7.24
2016-11-18T07:26:02.819Z,7.16
2016-11-18T07:27:02.719Z,7.24
2016-11-18T07:28:01.667Z,7.19
2016-11-18T07:29:02.661Z,7.21
2016-11-18T07:30:02.263Z,7.14
2016-11-18T07:31:01.931Z,7.12
2016-11-18T07:32:02.629Z,7.12
2016-11-18T07:33:02.592Z,7.21
2016-11-18T07:34:02.170Z,7.14
2016-11-18T07:35:02.543Z,7.23
2016-11-18T07:36:02.135Z,7.19
2016-11-18T07:37:02.503Z,7.45
2016-11-18T07:38:02.488Z,7.26
2016-11-18T07:39:02.040Z,7.45
2016-11-18T07:40:01.192Z,7.42
2016-11-18T07:41:02.002Z,7.48
2016-11-18T07:42:01.331Z,7.57
2016-11-18T07:43:02.234Z,7.45
2016-11-18T07:44:01.954Z,7.59
2016-11-18T07:45:01.699Z,7.57
2016-11-18T07:46:01.891Z,7.59
2016-11-18T07:47:01.882Z,7.56
2016-11-18T07:48:01.432Z,7.53
2016-11-18T07:49:01.477Z,7.48
2016-11-18T07:50:01.678Z,7.41
2016-11-18T07:51:02.183Z,7.41
2016-11-18T07:52:01.222Z,7.49
2016-11-18T07:53:01.426Z,7.59
2016-11-18T07:54:02.152Z,7.53
2016-11-18T07:55:01.797Z,7.47
2016-11-18T07:56:01.707Z,7.47
2016-11-18T07:57:01.659Z,7.52
2016-11-18T07:58:01.414Z,7.45
2016-11-18T07:59:01.622Z,7.48
2016-11-18T08:00:01.677Z,7.45
2016-11-18T08:01:01.958Z,7.39
2016-11-18T08:02:01.310Z,7.34
2016-11-18T08:03:01.942Z,7.41
2016-11-18T08:04:01.903Z,7.41
2016-11-18T08:05:01.737Z,7.45
2016-11-18T08:06:01.463Z,7.42
2016-11-18T08:07:01.848Z,7.27
2016-11-18T08:08:01.833Z,7.26
2016-11-18T08:09:01.411Z,7.37
2016-11-18T08:10:01.052Z,7.39
2016-11-18T08:11:00.918Z,7.47
2016-11-18T08:12:01.739Z,7.57
2016-11-18T08:13:01.722Z,7.49
2016-11-18T08:14:00.368Z,7.59
2016-11-18T08:15:00.265Z,7.44
2016-11-18T08:16:01.637Z,7.3
2016-11-18T08:17:01.602Z,7.11
2016-11-18T08:18:01.615Z,7.11
2016-11-18T08:19:00.841Z,7.16
2016-11-18T08:20:01.242Z,7.12
2016-11-18T08:21:01.538Z,7.14
2016-11-18T08:22:01.343Z,7.21
2016-11-18T08:23:00.825Z,7.44
2016-11-18T08:24:01.140Z,7.41
2016-11-18T08:25:00.780Z,7.44
2016-11-18T08:26:01.002Z,7.57
2016-11-18T08:27:00.650Z,8.09
2016-11-18T08:28:00.980Z,8.66
2016-11-18T08:29:01.393Z,9.29
2016-11-18T08:30:00.543Z,9.72
2016-11-18T08:31:00.643Z,10.29
2016-11-18T08:32:00.950Z,10.03
2016-11-18T08:33:00.976Z,9.58
2016-11-18T08:34:00.512Z,9.45
2016-11-18T08:35:00.951Z,9.27
2016-11-18T08:35:59.738Z,9.21
2016-11-18T08:37:00.119Z,8.79
2016-11-18T08:38:00.091Z,8.67
2016-11-18T08:39:00.081Z,8.95
2016-11-18T08:40:00.047Z,9.13
2016-11-18T08:41:01.119Z,9.74
2016-11-18T08:42:01.101Z,9.78
2016-11-18T08:43:00.953Z,10.07
2016-11-18T08:44:00.458Z,9.54
2016-11-18T08:45:01.032Z,9.29
2016-11-18T08:46:00.353Z,9.29
2016-11-18T08:47:00.987Z,9.38
2016-11-18T08:48:00.003Z,9.5
2016-11-18T08:49:00.930Z,9.87
2016-11-18T08:50:00.880Z,9.58
2016-11-18T08:51:00.500Z,9.61
2016-11-18T08:52:00.884Z,9.5
2016-11-18T08:53:00.740Z,9.74
2016-11-18T08:54:00.292Z,9.92
2016-11-18T08:55:00.842Z,9.58
2016-11-18T08:56:00.829Z,9.61
2016-11-18T08:57:00.798Z,9.4
2016-11-18T08:58:00.043Z,9.6
2016-11-18T08:58:59.382Z,9.58
2016-11-18T09:00:00.022Z,9.47
2016-11-18T09:01:00.064Z,9.46
2016-11-18T09:02:00.719Z,9.85
2016-11-18T09:03:00.071Z,9.92
2016-11-18T09:04:00.801Z,10.08
2016-11-18T09:05:00.075Z,10.16
2016-11-18T09:06:00.616Z,9.75
2016-11-18T09:07:00.609Z,9.56
2016-11-18T09:08:00.593Z,9.6
2016-11-18T09:09:00.306Z,9.46
2016-11-18T09:09:59.952Z,9.5
2016-11-18T09:10:59.993Z,9.32
2016-11-18T09:12:00.480Z,9.19
2016-11-18T09:13:00.082Z,9.06
2016-11-18T09:13:59.863Z,9.16
2016-11-18T09:15:00.458Z,9.11
2016-11-18T09:16:00.013Z,9.16
2016-11-18T09:16:59.994Z,9.31
2016-11-18T09:17:59.286Z,9.68
2016-11-18T09:18:59.304Z,9.92
2016-11-18T09:20:00.052Z,9.74
2016-11-18T09:20:59.931Z,9.78
2016-11-18T09:22:00.253Z,9.86
2016-11-18T09:23:00.181Z,9.64
2016-11-18T09:23:59.598Z,9.56
2016-11-18T09:24:59.575Z,9.5
2016-11-18T09:25:59.511Z,9.43
2016-11-18T09:26:59.838Z,9.46
2016-11-18T09:28:00.214Z,9.47
2016-11-18T09:28:59.771Z,9.38
2016-11-18T09:29:59.505Z,9.38
2016-11-18T09:31:00.135Z,9.29
2016-11-18T09:31:59.479Z,9.38
2016-11-18T09:32:59.701Z,9.43
2016-11-18T09:33:59.017Z,9.38
2016-11-18T09:34:59.043Z,9.34
2016-11-18T09:35:59.202Z,9.37
2016-11-18T09:36:59.283Z,9.46
2016-11-18T09:37:59.334Z,9.27
2016-11-18T09:38:58.894Z,9.28
2016-11-18T09:39:59.543Z,9.16
2016-11-18T09:40:59.294Z,9.31
2016-11-18T09:41:59.177Z,9.28
2016-11-18T09:42:59.231Z,9.29
2016-11-18T09:43:59.880Z,9.25
2016-11-18T09:44:59.484Z,9.27
2016-11-18T09:45:59.814Z,9.4
2016-11-18T09:46:59.833Z,9.43
2016-11-18T09:47:58.725Z,9.43
2016-11-18T09:48:59.148Z,9.5
2016-11-18T09:49:59.743Z,9.49
2016-11-18T09:50:59.762Z,9.49
2016-11-18T09:51:59.277Z,9.34
2016-11-18T09:52:59.282Z,9.53
2016-11-18T09:53:59.253Z,9.6
2016-11-18T09:54:59.239Z,9.62
2016-11-18T09:55:58.883Z,9.82
2016-11-18T09:56:58.214Z,9.83
2016-11-18T09:57:58.991Z,9.89
2016-11-18T09:58:59.407Z,9.85
2016-11-18T09:59:58.976Z,9.78
2016-11-18T10:00:58.983Z,9.78
2016-11-18T10:01:58.943Z,9.78
2016-11-18T10:02:59.063Z,9.71
2016-11-18T10:03:59.459Z,9.6
2016-11-18T10:04:59.124Z,9.64
2016-11-18T10:05:58.799Z,9.6
2016-11-18T10:06:58.652Z,9.58
2016-11-18T10:07:59.362Z,9.45
2016-11-18T10:08:58.920Z,9.54
2016-11-18T10:09:59.334Z,9.56
2016-11-18T10:10:57.926Z,9.67
2016-11-18T10:11:59.152Z,9.75
2016-11-18T10:12:59.292Z,9.86
2016-11-18T10:13:58.517Z,9.87
2016-11-18T10:14:58.797Z,9.89
2016-11-18T10:15:58.783Z,10.04
2016-11-18T10:16:59.060Z,10.11
2016-11-18T10:17:58.733Z,10.29
2016-11-18T10:18:59.138Z,10.69
2016-11-18T10:19:58.286Z,10.81
2016-11-18T10:20:58.691Z,10.82
2016-11-18T10:21:59.087Z,10.8
2016-11-18T10:22:59.036Z,10.82
2016-11-18T10:23:58.885Z,10.82
2016-11-18T10:24:58.348Z,10.77
2016-11-18T10:25:59.001Z,10.85
2016-11-18T10:26:58.981Z,11.02
2016-11-18T10:27:58.380Z,10.81
2016-11-18T10:28:58.502Z,10.9
2016-11-18T10:29:58.776Z,10.82
2016-11-18T10:30:58.063Z,10.53
2016-11-18T10:31:58.911Z,10.64
2016-11-18T10:32:58.045Z,10.59
2016-11-18T10:33:57.847Z,10.69
2016-11-18T10:34:58.707Z,10.57
2016-11-18T10:35:58.395Z,10.37
2016-11-18T10:36:58.367Z,10.07
2016-11-18T10:37:57.573Z,10.01
2016-11-18T10:38:58.014Z,10.26
2016-11-18T10:39:58.322Z,10.62
2016-11-18T10:40:58.309Z,11.15
2016-11-18T10:41:58.691Z,11.08
2016-11-18T10:42:57.929Z,11
2016-11-18T10:43:57.938Z,11.61
2016-11-18T10:44:57.334Z,11.95
2016-11-18T10:45:58.182Z,11.91
2016-11-18T10:46:57.612Z,11.95
2016-11-18T10:47:58.571Z,12.43
2016-11-18T10:48:57.915Z,12.3
2016-11-18T10:49:57.486Z,11.6
2016-11-18T10:50:57.382Z,11.17
2016-11-18T10:51:57.838Z,11.24
2016-11-18T10:52:58.488Z,12.24
2016-11-18T10:53:57.902Z,13.03
2016-11-18T10:54:57.798Z,13
2016-11-18T10:55:57.792Z,11.86
2016-11-18T10:56:57.625Z,11.5
2016-11-18T10:57:58.419Z,11.29
2016-11-18T10:58:57.558Z,11
2016-11-18T10:59:57.982Z,11
2016-11-18T11:00:57.942Z,10.98
2016-11-18T11:01:57.570Z,11
2016-11-18T11:02:57.072Z,11.08
2016-11-18T11:03:58.162Z,11.05
2016-11-18T11:04:58.310Z,10.8
2016-11-18T11:05:58.313Z,10.81
2016-11-18T11:06:58.256Z,11.28
2016-11-18T11:07:58.227Z,12.32
2016-11-18T11:08:57.472Z,12.16
2016-11-18T11:09:57.785Z,12.06
2016-11-18T11:10:58.192Z,12.1
2016-11-18T11:11:57.510Z,11.61
2016-11-18T11:12:57.519Z,11.89
2016-11-18T11:13:56.972Z,11.5
2016-11-18T11:14:57.952Z,11.32
2016-11-18T11:15:57.442Z,11.18
2016-11-18T11:16:58.050Z,11.13
2016-11-18T11:17:57.395Z,11
2016-11-18T11:18:57.606Z,10.71
2016-11-18T11:19:56.875Z,10.93
2016-11-18T11:20:57.581Z,10.6
2016-11-18T11:21:57.261Z,10.72
2016-11-18T11:22:57.982Z,10.59
2016-11-18T11:23:57.542Z,10.81
2016-11-18T11:24:57.277Z,10.89
2016-11-18T11:25:57.901Z,10.57
2016-11-18T11:26:57.898Z,10.72
2016-11-18T11:27:57.452Z,10.87
2016-11-18T11:28:57.833Z,11.03
2016-11-18T11:29:57.280Z,11.29
2016-11-18T11:30:57.673Z,11.2
2016-11-18T11:31:57.793Z,11.32
2016-11-18T11:32:57.793Z,11.53
2016-11-18T11:33:57.163Z,11.57
2016-11-18T11:34:56.673Z,11.47
2016-11-18T11:35:57.084Z,11.24
2016-11-18T11:36:57.697Z,11.17
2016-11-18T11:37:57.057Z,11.06
2016-11-18T11:38:57.285Z,10.82
2016-11-18T11:39:57.241Z,10.71
2016-11-18T11:40:56.483Z,10.41
2016-11-18T11:41:57.594Z,10.53
2016-11-18T11:42:57.277Z,10.87
2016-11-18T11:43:56.857Z,10.8
2016-11-18T11:44:57.573Z,10.93
2016-11-18T11:45:56.807Z,10.85
2016-11-18T11:46:57.391Z,10.48
2016-11-18T11:47:56.675Z,10.8
2016-11-18T11:48:56.662Z,10.95
2016-11-18T11:49:56.647Z,10.8
2016-11-18T11:50:56.903Z,10.56
2016-11-18T11:51:57.420Z,10.98
2016-11-18T11:52:56.983Z,11.29
2016-11-18T11:53:56.562Z,11.32
2016-11-18T11:54:57.003Z,11.35
2016-11-18T11:55:57.469Z,11.58
2016-11-18T11:56:57.332Z,11.89
2016-11-18T11:57:57.308Z,12.27
2016-11-18T11:58:57.151Z,12.4
2016-11-18T11:59:57.337Z,11.94
2016-11-18T12:00:57.258Z,11.78
2016-11-18T12:01:56.683Z,12.3
2016-11-18T12:02:56.333Z,12.65
2016-11-18T12:03:57.214Z,12.9
2016-11-18T12:04:56.540Z,12.35
2016-11-18T12:05:57.028Z,11.65
2016-11-18T12:06:56.751Z,11.91
2016-11-18T12:07:56.394Z,12.49
2016-11-18T12:08:57.112Z,12.02
2016-11-18T12:09:57.182Z,12.28
2016-11-18T12:10:57.054Z,12.48
2016-11-18T12:11:55.792Z,12.81
2016-11-18T12:12:57.044Z,12.65
2016-11-18T12:13:56.470Z,12.03
2016-11-18T12:14:56.454Z,12.06
2016-11-18T12:15:56.689Z,12.37
2016-11-18T12:16:56.957Z,12.71
2016-11-18T12:17:56.544Z,13
2016-11-18T12:18:56.949Z,13.14
2016-11-18T12:19:56.787Z,13.1
2016-11-18T12:20:56.178Z,13.56
2016-11-18T12:21:56.064Z,13.78
2016-11-18T12:22:56.522Z,13.78
2016-11-18T12:23:56.536Z,13.47
2016-11-18T12:24:56.128Z,13.29
2016-11-18T12:25:56.785Z,12.73
2016-11-18T12:26:55.729Z,12.12
2016-11-18T12:27:55.725Z,11.98
2016-11-18T12:28:56.355Z,11.94
2016-11-18T12:29:56.343Z,11.89
2016-11-18T12:30:56.755Z,11.48
2016-11-18T12:31:56.315Z,11.08
2016-11-18T12:32:55.659Z,11.23
2016-11-18T12:33:55.939Z,11.03
2016-11-18T12:34:56.683Z,11.02
2016-11-18T12:35:56.584Z,10.87
2016-11-18T12:36:55.989Z,10.98
2016-11-18T12:37:56.729Z,10.77
2016-11-18T12:38:55.860Z,10.81
2016-11-18T12:39:55.272Z,10.82
2016-11-18T12:40:56.148Z,11.06
2016-11-18T12:41:55.757Z,11.57
2016-11-18T12:42:56.493Z,11.87
2016-11-18T12:43:56.507Z,12.42
2016-11-18T12:44:56.360Z,12.34
2016-11-18T12:45:55.716Z,12.68
2016-11-18T12:46:55.797Z,12.79
2016-11-18T12:47:56.421Z,13.21
2016-11-18T12:48:56.382Z,12.82
2016-11-18T12:49:55.822Z,12.45
2016-11-18T12:50:56.376Z,12.82
2016-11-18T12:51:55.943Z,12.76
2016-11-18T12:52:55.614Z,13.33
2016-11-18T12:53:55.634Z,13.6
2016-11-18T12:54:55.647Z,13.95
2016-11-18T12:55:55.653Z,14.13
2016-11-18T12:56:55.507Z,13.23
2016-11-18T12:57:55.603Z,13.49
2016-11-18T12:58:56.245Z,13.56
2016-11-18T12:59:55.573Z,13.75
2016-11-18T13:00:56.211Z,13.78
2016-11-18T13:01:55.533Z,12.45
2016-11-18T13:02:56.172Z,12.43
2016-11-18T13:03:55.492Z,12.98
2016-11-18T13:04:55.395Z,12.81
2016-11-18T13:05:55.493Z,12.71
2016-11-18T13:06:54.782Z,13